Time;durP1;ratioP1;P1;durP2;ratioP2;P2;SDS_P1;SDS_P2;PMS_P1;PMS_P2;Temp;Humidity;BMP_temperature;BMP_pressure;BME280_temperature;BME280_humidity;BME280_pressure;Samples;Min_cycle;Max_cycle;Signal;HPM_P1;HPM_P2
2022/01/07 00:01:22;;;;;;;2.77;2.53;;;;;;;5.16;100.00;100341.00;5085244;28;20183;-75
2022/01/07 00:03:48;;;;;;;7.60;3.77;;;;;;;5.15;100.00;100335.78;5080665;28;20217;-76
2022/01/07 00:06:15;;;;;;;11.50;5.13;;;;;;;5.09;100.00;100333.88;5094598;28;20229;-76
2022/01/07 00:08:42;;;;;;;4.53;3.77;;;;;;;5.09;100.00;100333.88;5091344;28;20198;-77
2022/01/07 00:11:09;;;;;;;3.77;3.47;;;;;;;5.12;100.00;100353.66;5093256;28;20197;-75
2022/01/07 00:13:36;;;;;;;3.50;3.23;;;;;;;5.01;100.00;100337.81;5085319;28;20198;-78
2022/01/07 00:16:03;;;;;;;2.70;2.50;;;;;;;5.18;100.00;100354.78;5091582;28;20226;-75
2022/01/07 00:18:32;;;;;;;6.07;3.00;;;;;;;5.10;100.00;100361.31;5074804;28;20214;-76
2022/01/07 00:20:58;;;;;;;8.77;4.37;;;;;;;5.12;100.00;100369.97;5074646;28;20214;-74
2022/01/07 00:23:25;;;;;;;3.20;2.90;;;;;;;5.09;100.00;100371.53;5081956;28;20195;-75
2022/01/07 00:25:52;;;;;;;4.73;4.33;;;;;;;5.02;100.00;100352.41;5086866;28;20202;-76
2022/01/07 00:28:20;;;;;;;5.93;3.50;;;;;;;5.11;100.00;100365.63;5094689;28;20250;-76
2022/01/07 00:30:47;;;;;;;12.70;5.40;;;;;;;4.97;100.00;100365.06;5094233;28;20552;-76
2022/01/07 00:33:14;;;;;;;7.73;5.60;;;;;;;4.99;100.00;100373.69;5086885;28;20661;-75
2022/01/07 00:35:42;;;;;;;5.27;4.77;;;;;;;5.02;100.00;100367.84;5085061;28;20225;-77
2022/01/07 00:38:09;;;;;;;5.03;4.17;;;;;;;5.04;100.00;100366.19;5081420;28;20221;-74
2022/01/07 00:40:36;;;;;;;3.90;3.50;;;;;;;5.04;100.00;100376.47;5076615;28;20271;-75
2022/01/07 00:43:04;;;;;;;5.67;4.73;;;;;;;4.97;100.00;100382.19;5092421;28;20693;-75
2022/01/07 00:45:30;;;;;;;7.43;4.03;;;;;;;5.04;100.00;100380.72;5094299;28;20197;-75
2022/01/07 00:47:58;;;;;;;5.43;4.87;;;;;;;5.04;100.00;100385.88;5094769;28;20217;-77
2022/01/07 00:50:26;;;;;;;8.03;5.67;;;;;;;4.96;100.00;100381.28;5077952;28;20195;-75
2022/01/07 00:52:55;;;;;;;12.90;6.33;;;;;;;4.97;100.00;100385.63;5089957;28;20239;-74
2022/01/07 00:55:23;;;;;;;4.13;3.83;;;;;;;4.95;100.00;100370.97;5074049;28;20563;-75
2022/01/07 00:57:50;;;;;;;5.47;4.97;;;;;;;4.97;100.00;100379.59;5073912;28;20195;-76
2022/01/07 01:00:20;;;;;;;5.00;3.90;;;;;;;5.02;100.00;100369.53;5085790;28;20190;-75
2022/01/07 01:02:47;;;;;;;5.10;4.40;;;;;;;4.78;100.00;100338.56;5090823;28;20206;-76
2022/01/07 01:05:15;;;;;;;7.80;4.73;;;;;;;4.91;100.00;100374.22;5074617;28;20231;-77
2022/01/07 01:07:43;;;;;;;9.33;5.00;;;;;;;5.04;100.00;100385.88;5074603;28;20208;-75
2022/01/07 01:10:13;;;;;;;5.77;5.00;;;;;;;5.00;100.00;100388.31;5093628;28;20273;-76
2022/01/07 01:12:42;;;;;;;6.23;4.67;;;;;;;5.00;100.00;100392.56;5091419;28;20194;-77
2022/01/07 01:15:12;;;;;;;9.23;5.63;;;;;;;5.03;100.00;100395.28;5076244;28;20198;-76
2022/01/07 01:17:40;;;;;;;9.67;6.63;;;;;;;5.14;100.00;100399.16;5091401;28;20650;-76
2022/01/07 01:20:09;;;;;;;5.13;4.60;;;;;;;5.11;100.00;100390.44;5084296;28;20206;-75
2022/01/07 01:22:36;;;;;;;5.33;4.13;;;;;;;5.06;100.00;100380.00;5091938;28;20202;-75
2022/01/07 01:25:04;;;;;;;6.43;4.50;;;;;;;5.09;100.00;100386.97;5084085;28;20212;-76
2022/01/07 01:27:32;;;;;;;9.27;5.60;;;;;;;4.86;100.00;100342.31;5085569;28;20194;-76
2022/01/07 01:30:00;;;;;;;4.97;4.47;;;;;;;5.07;100.00;100381.72;5080853;28;20201;-75
2022/01/07 01:32:27;;;;;;;9.23;4.80;;;;;;;5.11;100.00;100382.75;5093842;28;20190;-75
2022/01/07 01:34:54;;;;;;;6.23;4.43;;;;;;;5.04;100.00;100388.44;5073245;28;20203;-76
2022/01/07 01:37:21;;;;;;;9.07;6.30;;;;;;;5.04;100.00;100373.03;5077862;28;20225;-74
2022/01/07 01:39:47;;;;;;;7.53;6.73;;;;;;;4.76;100.00;100350.44;5074232;28;20202;-75
2022/01/07 01:42:14;;;;;;;5.00;4.30;;;;;;;5.06;100.00;100395.41;5073993;28;20187;-74
2022/01/07 01:44:42;;;;;;;5.03;4.43;;;;;;;5.06;100.00;100413.41;5073229;28;20240;-76
2022/01/07 01:47:09;;;;;;;6.63;4.93;;;;;;;5.12;100.00;100395.66;5087114;28;20194;-76
2022/01/07 01:49:36;;;;;;;11.73;6.80;;;;;;;5.20;100.00;100402.00;5085690;28;20580;-74
2022/01/07 01:52:03;;;;;;;3.60;3.20;;;;;;;5.21;100.00;100408.88;5074046;28;20198;-74
2022/01/07 01:54:30;;;;;;;7.73;5.90;;;;;;;5.21;100.00;100390.03;5073831;28;20209;-76
2022/01/07 01:56:56;;;;;;;5.77;4.20;;;;;;;5.27;100.00;100391.16;5091586;28;20214;-76
2022/01/07 01:59:25;;;;;;;9.03;5.27;;;;;;;5.22;100.00;100377.22;5080326;28;20198;-74
2022/01/07 02:01:54;;;;;;;11.23;6.07;;;;;;;5.27;100.00;100388.59;5072640;28;20290;-75
2022/01/07 02:04:21;;;;;;;6.53;5.20;;;;;;;5.31;100.00;100393.06;5073741;28;20231;-75
2022/01/07 02:06:49;;;;;;;8.00;5.93;;;;;;;5.30;100.00;100398.13;5083833;28;20624;-77
2022/01/07 02:09:16;;;;;;;8.73;5.60;;;;;;;5.21;100.00;100398.59;5092080;28;20198;-75
2022/01/07 02:11:43;;;;;;;8.47;5.17;;;;;;;5.18;100.00;100389.88;5083527;28;20191;-76
2022/01/07 02:14:10;;;;;;;8.97;6.37;;;;;;;5.23;100.00;100404.69;5083402;28;20198;-75
2022/01/07 02:16:37;;;;;;;9.97;6.97;;;;;;;5.22;100.00;100397.78;5081124;28;20210;-75
2022/01/07 02:19:05;;;;;;;11.77;7.10;;;;;;;5.24;100.00;100406.47;5092196;28;20194;-75
2022/01/07 02:21:37;;;;;;;5.13;4.10;;;;;;;5.21;100.00;100401.19;5091770;28;20625;-75
2022/01/07 02:24:04;;;;;;;10.90;7.73;;;;;;;5.26;100.00;100406.50;5092158;28;20190;-77
2022/01/07 02:26:33;;;;;;;7.67;5.43;;;;;;;5.25;100.00;100397.03;5091248;28;20194;-77
2022/01/07 02:29:00;;;;;;;7.90;5.20;;;;;;;5.24;100.00;100401.31;5091785;28;20194;-76
2022/01/07 02:31:27;;;;;;;7.70;5.63;;;;;;;5.27;100.00;100414.31;5071974;28;20194;-77
2022/01/07 02:33:54;;;;;;;10.50;6.27;;;;;;;5.29;100.00;100404.06;5071991;28;21827;-75
2022/01/07 02:36:21;;;;;;;11.80;5.50;;;;;;;5.30;100.00;100398.13;5072181;28;20227;-76
2022/01/07 02:38:49;;;;;;;11.97;7.43;;;;;;;5.27;100.00;100416.00;5082241;28;20190;-76
2022/01/07 02:41:16;;;;;;;11.80;6.53;;;;;;;5.34;100.00;100424.03;5073452;28;20203;-77
2022/01/07 02:43:43;;;;;;;10.97;7.83;;;;;;;5.28;100.00;100421.19;5076934;28;20213;-75
2022/01/07 02:46:09;;;;;;;10.33;7.10;;;;;;;5.30;100.00;100426.38;5092021;28;20205;-75
2022/01/07 02:48:36;;;;;;;8.20;5.47;;;;;;;5.34;100.00;100430.84;5078665;28;20203;-76
2022/01/07 02:51:03;;;;;;;11.20;6.33;;;;;;;5.34;100.00;100428.28;5087785;28;20190;-76
2022/01/07 02:53:30;;;;;;;8.07;5.63;;;;;;;5.24;100.00;100414.19;5099061;28;20189;-75
2022/01/07 02:55:58;;;;;;;11.87;6.43;;;;;;;5.37;100.00;100434.44;5079224;28;20194;-76
2022/01/07 02:58:25;;;;;;;8.77;4.67;;;;;;;5.27;100.00;100424.59;5090833;28;20230;-77
2022/01/07 03:00:52;;;;;;;8.40;5.03;;;;;;;5.31;100.00;100429.03;5079163;28;20194;-75
2022/01/07 03:03:18;;;;;;;9.43;5.83;;;;;;;5.32;100.00;100433.34;5071673;28;20273;-76
2022/01/07 03:05:45;;;;;;;7.73;5.63;;;;;;;5.34;100.00;100439.44;5071460;28;20226;-75
2022/01/07 03:08:12;;;;;;;7.40;6.43;;;;;;;5.19;100.00;100431.09;5072835;28;20198;-75
2022/01/07 03:10:39;;;;;;;8.97;5.47;;;;;;;5.25;100.00;100449.31;5083880;28;20194;-75
2022/01/07 03:13:07;;;;;;;10.60;5.57;;;;;;;5.12;100.00;100435.91;5087357;28;20197;-75
2022/01/07 03:15:37;;;;;;;8.20;5.83;;;;;;;5.27;100.00;100465.72;5075184;28;20187;-76
2022/01/07 03:18:04;;;;;;;9.03;5.50;;;;;;;5.27;100.00;100473.44;5071542;28;20607;-75
2022/01/07 03:20:37;;;;;;;13.40;7.47;;;;;;;5.24;100.00;100462.13;5083201;28;20639;-75
2022/01/07 03:23:05;;;;;;;13.23;7.97;;;;;;;5.26;100.00;100479.38;5091680;28;20247;-74
2022/01/07 03:25:32;;;;;;;12.40;7.27;;;;;;;5.24;100.00;100473.31;5091280;28;20232;-76
2022/01/07 03:27:58;;;;;;;10.07;7.03;;;;;;;5.23;100.00;100486.97;5091182;28;20268;-76
2022/01/07 03:30:26;;;;;;;14.23;7.70;;;;;;;5.36;100.00;100493.47;5080289;28;20265;-77
2022/01/07 03:32:53;;;;;;;8.93;6.90;;;;;;;5.36;100.00;100501.19;5071153;28;20190;-75
2022/01/07 03:35:20;;;;;;;11.60;8.50;;;;;;;5.23;100.00;100502.38;5088356;28;20689;-75
2022/01/07 03:37:49;;;;;;;17.00;8.93;;;;;;;5.27;100.00;100506.84;5090134;28;20218;-74
2022/01/07 03:40:17;;;;;;;24.07;10.50;;;;;;;5.34;100.00;100511.44;5086743;28;20194;-75
2022/01/07 03:42:45;;;;;;;13.73;8.70;;;;;;;5.27;100.00;100514.56;5078088;28;20190;-77
2022/01/07 03:45:14;;;;;;;18.67;7.47;;;;;;;5.29;100.00;100512.03;5085730;28;20240;-76
2022/01/07 03:47:43;;;;;;;16.73;7.57;;;;;;;5.28;100.00;100518.84;5083572;28;20299;-78
2022/01/07 03:50:13;;;;;;;17.53;10.33;;;;;;;5.30;100.00;100514.69;5083231;28;20700;-77
2022/01/07 03:52:40;;;;;;;19.67;11.07;;;;;;;5.30;100.00;100511.22;5099890;28;20244;-75
2022/01/07 03:55:10;;;;;;;18.63;11.23;;;;;;;5.36;100.00;100524.34;5103274;28;20197;-76
2022/01/07 03:57:37;;;;;;;15.23;10.43;;;;;;;5.36;100.00;100544.91;5110411;28;20232;-74
2022/01/07 04:00:05;;;;;;;15.47;8.67;;;;;;;5.44;100.00;100539.28;5100200;28;20627;-77
2022/01/07 04:02:32;;;;;;;19.47;11.63;;;;;;;5.37;100.00;100537.28;5094554;28;20576;-76
2022/01/07 04:05:00;;;;;;;14.13;9.23;;;;;;;5.35;100.00;100538.88;5085952;28;20670;-75
2022/01/07 04:07:30;;;;;;;73.03;31.73;;;;;;;5.32;100.00;100543.00;5076188;28;20222;-76
2022/01/07 04:09:57;;;;;;;27.40;14.30;;;;;;;5.35;100.00;100544.00;5080117;28;20284;-75
2022/01/07 04:12:24;;;;;;;17.17;11.70;;;;;;;5.36;100.00;100550.03;5092268;28;20191;-77
2022/01/07 04:15:01;;;;;;;15.23;10.93;;;;;;;5.38;100.00;100553.56;5079319;28;20202;-76
2022/01/07 04:17:28;;;;;;;13.60;10.40;;;;;;;5.57;100.00;100558.66;5086418;28;20453;-76
2022/01/07 04:19:55;;;;;;;13.77;8.93;;;;;;;5.60;100.00;100561.38;5079194;28;20559;-75
2022/01/07 04:22:23;;;;;;;10.67;6.53;;;;;;;5.59;100.00;100563.88;5094866;28;20194;-74
2022/01/07 04:24:50;;;;;;;12.07;7.27;;;;;;;5.43;100.00;100558.09;5094530;28;20570;-75
2022/01/07 04:27:17;;;;;;;7.57;6.20;;;;;;;5.44;100.00;100551.25;5087060;28;20223;-74
2022/01/07 04:29:44;;;;;;;11.40;8.90;;;;;;;5.36;100.00;100561.22;5077387;28;20661;-75
2022/01/07 04:32:11;;;;;;;8.67;7.30;;;;;;;5.26;100.00;100523.06;5074407;28;20194;-77
2022/01/07 04:34:38;;;;;;;13.93;8.90;;;;;;;5.45;100.00;100561.63;5074676;28;20625;-76
2022/01/07 04:37:05;;;;;;;12.27;7.77;;;;;;;5.49;100.00;100548.06;5074389;28;20222;-76
2022/01/07 04:39:33;;;;;;;9.90;7.97;;;;;;;5.47;100.00;100559.09;5093790;28;20244;-75
2022/01/07 04:42:00;;;;;;;12.17;8.63;;;;;;;5.30;100.00;100519.81;5101812;28;20197;-75
2022/01/07 04:44:27;;;;;;;11.90;8.40;;;;;;;5.40;100.00;100554.50;5109190;28;20243;-74
2022/01/07 04:46:54;;;;;;;12.40;9.13;;;;;;;5.39;100.00;100556.19;5094142;28;20194;-74
2022/01/07 04:49:21;;;;;;;5.60;4.93;;;;;;;5.45;100.00;100561.63;5076864;28;20187;-76
2022/01/07 04:51:48;;;;;;;9.47;6.70;;;;;;;5.44;100.00;100565.00;5073940;28;20199;-75
2022/01/07 04:54:15;;;;;;;9.50;6.60;;;;;;;5.44;100.00;100557.28;5074067;28;20264;-75
2022/01/07 04:56:43;;;;;;;6.33;5.67;;;;;;;5.49;100.00;100557.50;5072457;28;20205;-75
2022/01/07 04:59:10;;;;;;;13.30;8.10;;;;;;;5.49;100.00;100560.06;5073399;28;20202;-76
2022/01/07 05:01:37;;;;;;;11.40;6.67;;;;;;;5.42;100.00;100558.03;5091396;28;20190;-74
2022/01/07 05:04:04;;;;;;;9.47;6.77;;;;;;;5.40;100.00;100555.38;5091526;28;20276;-78
2022/01/07 05:06:44;;;;;;;13.47;8.17;;;;;;;5.53;100.00;100576.50;5082020;28;20704;-75
2022/01/07 05:09:11;;;;;;;20.77;7.83;;;;;;;5.06;100.00;100517.88;5091735;28;20753;-75
2022/01/07 05:11:38;;;;;;;12.07;6.97;;;;;;;5.49;100.00;100578.91;5087396;28;20222;-73
2022/01/07 05:14:06;;;;;;;9.00;7.47;;;;;;;5.22;100.00;100552.03;5074484;28;20199;-76
2022/01/07 05:16:33;;;;;;;5.40;4.33;;;;;;;5.49;100.00;100584.06;5073536;28;20194;-75
2022/01/07 05:19:00;;;;;;;11.77;8.83;;;;;;;5.44;100.00;100593.28;5077209;28;20699;-76
2022/01/07 05:21:27;;;;;;;20.97;7.93;;;;;;;5.46;100.00;100594.22;5093556;28;20214;-74
2022/01/07 05:23:54;;;;;;;14.83;9.73;;;;;;;5.22;100.00;100544.31;5093663;28;20201;-77
2022/01/07 05:26:21;;;;;;;14.03;7.13;;;;;;;5.47;100.00;100585.69;5077967;28;20248;-75
2022/01/07 05:28:47;;;;;;;19.63;9.67;;;;;;;5.54;100.00;100603.94;5074991;28;20747;-73
2022/01/07 05:31:16;;;;;;;9.53;7.67;;;;;;;5.54;100.00;100597.13;5090056;28;20197;-75
2022/01/07 05:33:42;;;;;;;12.77;7.90;;;;;;;5.57;100.00;100606.66;5081071;28;20194;-75
2022/01/07 05:36:09;;;;;;;18.47;9.00;;;;;;;5.59;100.00;100605.03;5093167;28;20198;-74
2022/01/07 05:38:36;;;;;;;9.30;6.43;;;;;;;5.71;100.00;100602.97;5090852;28;20785;-75
2022/01/07 05:41:03;;;;;;;17.37;9.60;;;;;;;5.58;100.00;100613.56;5074538;28;20654;-73
2022/01/07 05:43:30;;;;;;;16.17;8.97;;;;;;;5.50;100.00;100610.66;5088103;28;20183;-74
2022/01/07 05:45:57;;;;;;;16.33;9.37;;;;;;;5.50;100.00;100616.69;5076575;28;20195;-74
2022/01/07 05:48:26;;;;;;;5.30;4.80;;;;;;;5.61;100.00;100605.97;5073321;28;20199;-77
2022/01/07 05:50:52;;;;;;;3.73;2.10;;;;;;;5.49;100.00;100601.22;5091472;28;20668;-75
2022/01/07 05:53:19;;;;;;;13.27;8.37;;;;;;;4.89;100.00;100478.59;5093142;28;20194;-75
2022/01/07 05:55:46;;;;;;;9.87;7.13;;;;;;;5.47;100.00;100611.41;5092576;28;20198;-75
2022/01/07 05:58:13;;;;;;;12.60;8.57;;;;;;;5.46;100.00;100604.50;5091379;28;20228;-74
2022/01/07 06:00:40;;;;;;;13.77;8.47;;;;;;;5.52;100.00;100616.75;5075589;28;20197;-74
2022/01/07 06:03:07;;;;;;;14.57;7.90;;;;;;;5.49;100.00;100602.06;5079779;28;20625;-74
2022/01/07 06:05:35;;;;;;;10.83;7.50;;;;;;;5.51;100.00;100607.28;5085687;28;20225;-73
2022/01/07 06:08:02;;;;;;;14.03;7.13;;;;;;;5.49;100.00;100598.63;5092183;28;20228;-74
2022/01/07 06:10:29;;;;;;;14.20;8.47;;;;;;;5.40;100.00;100606.81;5090460;28;20594;-75
2022/01/07 06:12:56;;;;;;;11.23;7.73;;;;;;;5.57;100.00;100611.78;5090779;28;20557;-75
2022/01/07 06:15:23;;;;;;;16.27;6.60;;;;;;;5.33;100.00;100570.47;5092763;28;20251;-75
2022/01/07 06:17:49;;;;;;;14.43;8.30;;;;;;;5.53;100.00;100623.63;5092580;28;20637;-73
2022/01/07 06:20:18;;;;;;;12.50;8.70;;;;;;;5.50;100.00;100631.22;5091236;28;20214;-74
2022/01/07 06:22:46;;;;;;;9.87;6.47;;;;;;;5.60;100.00;100625.66;5080319;28;20214;-75
2022/01/07 06:25:13;;;;;;;13.63;7.63;;;;;;;5.59;100.00;100633.34;5086836;28;20597;-73
2022/01/07 06:27:40;;;;;;;9.03;6.83;;;;;;;5.64;100.00;100636.97;5072169;28;20198;-73
2022/01/07 06:30:08;;;;;;;12.70;5.93;;;;;;;5.57;100.00;100640.97;5071362;28;20203;-75
2022/01/07 06:32:35;;;;;;;17.40;9.87;;;;;;;5.57;100.00;100643.53;5076492;28;20217;-77
2022/01/07 06:35:02;;;;;;;5.90;4.53;;;;;;;5.18;100.00;100580.97;5092031;28;20704;-77
2022/01/07 06:37:29;;;;;;;12.53;7.60;;;;;;;5.21;100.00;100609.38;5092857;28;20198;-77
2022/01/07 06:39:58;;;;;;;14.07;6.80;;;;;;;5.50;100.00;100637.25;5091015;28;20198;-76
2022/01/07 06:42:25;;;;;;;10.23;7.47;;;;;;;5.68;100.00;100682.59;5093289;28;20285;-79
2022/01/07 06:44:52;;;;;;;17.30;9.00;;;;;;;6.32;100.00;100668.22;5095564;28;20224;-77
2022/01/07 06:47:18;;;;;;;16.03;8.77;;;;;;;6.00;100.00;100687.47;5081871;28;20210;-76
2022/01/07 06:49:45;;;;;;;19.07;10.57;;;;;;;5.97;100.00;100693.38;5087957;28;20240;-72
2022/01/07 06:52:12;;;;;;;12.20;7.83;;;;;;;5.88;100.00;100692.13;5091123;28;20198;-71
2022/01/07 06:54:39;;;;;;;17.00;9.80;;;;;;;5.86;100.00;100693.72;5091320;28;20198;-72
2022/01/07 06:57:07;;;;;;;14.60;8.90;;;;;;;5.88;100.00;100695.56;5092342;28;20213;-71
2022/01/07 06:59:34;;;;;;;16.23;9.87;;;;;;;5.92;100.00;100704.31;5091074;28;20238;-71
2022/01/07 07:02:01;;;;;;;15.20;9.23;;;;;;;5.96;100.00;100703.59;5092024;28;20198;-70
2022/01/07 07:04:28;;;;;;;15.47;8.40;;;;;;;6.00;100.00;100702.91;5091740;28;20222;-73
2022/01/07 07:06:56;;;;;;;12.57;7.60;;;;;;;6.06;100.00;100704.91;5091905;28;20198;-72
2022/01/07 07:09:22;;;;;;;12.73;8.03;;;;;;;5.84;100.00;100711.66;5091770;28;20645;-71
2022/01/07 07:11:49;;;;;;;11.90;8.03;;;;;;;5.92;100.00;100714.59;5092015;28;20239;-72
2022/01/07 07:14:17;;;;;;;20.17;10.07;;;;;;;5.95;100.00;100722.44;5091507;28;20197;-71
2022/01/07 07:16:44;;;;;;;20.47;9.83;;;;;;;5.93;100.00;100729.19;5091641;28;20193;-72
2022/01/07 07:19:11;;;;;;;16.37;10.17;;;;;;;5.95;100.00;100718.19;5091869;28;20249;-72
2022/01/07 07:21:38;;;;;;;21.27;9.33;;;;;;;6.17;100.00;100719.97;5091846;28;20197;-73
2022/01/07 07:24:06;;;;;;;19.10;8.77;;;;;;;5.97;100.00;100716.53;5092004;28;20206;-72
2022/01/07 07:26:33;;;;;;;16.00;8.80;;;;;;;6.02;100.00;100716.75;5091854;28;20202;-73
2022/01/07 07:29:00;;;;;;;16.17;9.33;;;;;;;6.09;100.00;100716.19;5091890;28;20276;-72
2022/01/07 07:31:28;;;;;;;12.47;7.40;;;;;;;6.17;100.00;100712.22;5091083;28;20186;-73
2022/01/07 07:34:17;;;;;;;22.50;8.90;;;;;;;6.20;100.00;100712.41;5091788;28;20273;-73
2022/01/07 07:36:45;;;;;;;15.03;8.07;;;;;;;6.35;100.00;100718.16;5091422;28;20193;-73
2022/01/07 07:39:13;;;;;;;19.80;7.20;;;;;;;6.38;100.00;100718.31;5091396;28;20241;-73
2022/01/07 07:41:41;;;;;;;14.00;9.33;;;;;;;6.34;100.00;100721.56;5092091;28;20191;-73
2022/01/07 07:44:08;;;;;;;13.83;8.70;;;;;;;6.40;100.00;100716.69;5091828;28;20194;-72
2022/01/07 07:46:38;;;;;;;17.73;9.07;;;;;;;6.42;100.00;100717.59;5091637;28;20627;-72
2022/01/07 07:49:06;;;;;;;18.27;8.00;;;;;;;6.41;100.00;100712.41;5091424;28;20205;-73
2022/01/07 07:51:33;;;;;;;11.67;7.87;;;;;;;6.39;100.00;100717.47;5091712;28;20217;-73
2022/01/07 07:54:00;;;;;;;15.10;7.43;;;;;;;6.45;100.00;100706.56;5091811;28;20636;-72
2022/01/07 07:56:28;;;;;;;19.37;9.10;;;;;;;6.12;100.00;100667.41;5091363;28;20636;-73
2022/01/07 07:58:57;;;;;;;11.37;7.27;;;;;;;6.52;100.00;100720.56;5091242;28;20232;-73
2022/01/07 08:01:24;;;;;;;15.97;8.00;;;;;;;6.64;100.00;100718.47;5090439;28;20198;-73
2022/01/07 08:03:52;;;;;;;11.57;6.97;;;;;;;6.64;100.00;100719.38;5091630;28;20199;-72
2022/01/07 08:06:19;;;;;;;9.47;6.80;;;;;;;6.80;100.00;100715.72;5051381;28;20198;-73
2022/01/07 08:08:46;;;;;;;14.33;8.23;;;;;;;6.70;100.00;100692.97;5051104;28;20203;-73
2022/01/07 08:11:14;;;;;;;20.00;10.80;;;;;;;6.82;100.00;100707.22;5051380;28;20230;-73
2022/01/07 08:16:25;;;;;;;11.90;6.60;;;;;;;6.80;100.00;100706.28;5051437;28;20808;-73
2022/01/07 08:18:55;;;;;;;20.97;10.40;;;;;;;6.87;100.00;100717.72;5051145;28;20219;-71
2022/01/07 08:21:24;;;;;;;23.10;9.17;;;;;;;7.03;100.00;100711.50;5051088;28;20224;-71
2022/01/07 08:23:53;;;;;;;16.50;7.47;;;;;;;6.93;100.00;100716.25;5051182;28;20191;-71
2022/01/07 08:26:20;;;;;;;13.57;8.83;;;;;;;6.58;100.00;100643.53;5053743;28;20199;-72
2022/01/07 08:28:50;;;;;;;10.27;6.57;;;;;;;7.18;100.00;100728.41;5054817;28;20258;-71
2022/01/07 08:34:53;;;;;;;12.93;8.63;;;;;;;7.51;100.00;100727.94;5053675;28;20202;-72
2022/01/07 08:36:59;;;;;;;11.17;6.87;;;;;;;7.49;100.00;100726.16;5054518;28;20207;-72
2022/01/07 08:39:26;;;;;;;12.70;7.50;;;;;;;7.19;100.00;100725.03;5054590;28;20281;-72
2022/01/07 08:41:53;;;;;;;11.20;7.77;;;;;;;7.16;100.00;100693.97;5054573;28;20223;-72
2022/01/07 08:44:22;;;;;;;12.00;6.90;;;;;;;7.34;100.00;100729.91;5054187;28;20666;-72
2022/01/07 08:46:49;;;;;;;14.13;7.37;;;;;;;7.13;100.00;100687.81;5054175;28;20196;-72
2022/01/07 08:49:18;;;;;;;9.27;6.57;;;;;;;7.34;100.00;100725.63;5054486;28;20195;-71
2022/01/07 08:51:45;;;;;;;15.30;7.73;;;;;;;7.39;100.00;100739.56;5054025;28;20689;-72
2022/01/07 08:54:12;;;;;;;20.13;9.80;;;;;;;7.55;100.00;100729.81;5054088;28;20663;-71
2022/01/07 08:56:39;;;;;;;19.13;9.17;;;;;;;7.62;100.00;100726.63;5054177;28;20188;-72
2022/01/07 08:59:06;;;;;;;11.80;6.80;;;;;;;7.56;100.00;100732.47;5054202;28;20223;-71
2022/01/07 09:01:33;;;;;;;25.13;10.43;;;;;;;7.76;100.00;100735.75;5053104;28;20666;-72
2022/01/07 09:03:59;;;;;;;17.53;8.83;;;;;;;7.90;100.00;100735.44;5055992;28;20199;-73
2022/01/07 09:06:27;;;;;;;19.73;9.83;;;;;;;7.87;100.00;100726.72;5094433;28;20584;-71
2022/01/07 09:08:54;;;;;;;18.87;10.37;;;;;;;8.08;100.00;100732.63;5094096;28;20199;-71
2022/01/07 09:11:21;;;;;;;14.37;8.60;;;;;;;7.66;100.00;100721.66;5094271;28;20256;-71
2022/01/07 09:13:51;;;;;;;18.90;9.90;;;;;;;7.79;100.00;100730.72;5093866;28;20198;-71
2022/01/07 09:16:17;;;;;;;18.10;8.10;;;;;;;7.85;100.00;100726.66;5094201;28;20638;-71
2022/01/07 09:18:44;;;;;;;17.17;9.07;;;;;;;7.83;100.00;100722.25;5093574;28;20729;-71
2022/01/07 09:21:11;;;;;;;15.17;8.33;;;;;;;7.48;100.00;100721.84;5093752;28;20222;-71
2022/01/07 09:23:41;;;;;;;18.77;9.83;;;;;;;7.72;100.00;100726.16;5093905;28;20194;-75
2022/01/07 09:26:08;;;;;;;17.70;8.63;;;;;;;7.68;100.00;100720.00;5093688;28;20741;-72
2022/01/07 09:28:35;;;;;;;14.80;8.57;;;;;;;7.75;100.00;100723.66;5093866;28;20247;-71
2022/01/07 09:31:02;;;;;;;15.70;8.07;;;;;;;7.76;100.00;100723.75;5093098;28;20201;-71
2022/01/07 09:33:29;;;;;;;16.83;10.13;;;;;;;7.66;100.00;100718.19;5093670;28;20198;-71
2022/01/07 09:35:56;;;;;;;21.53;8.03;;;;;;;7.60;100.00;100715.41;5093070;28;20190;-72
2022/01/07 09:38:25;;;;;;;20.50;10.80;;;;;;;7.79;100.00;100712.66;5093632;28;20638;-71
2022/01/07 09:40:53;;;;;;;16.80;9.77;;;;;;;7.89;100.00;100713.03;5093657;28;20255;-72
2022/01/07 09:43:20;;;;;;;14.67;9.10;;;;;;;7.78;100.00;100716.03;5093687;28;20251;-72
2022/01/07 09:45:47;;;;;;;13.73;8.27;;;;;;;7.63;100.00;100712.94;5093185;28;20259;-72
2022/01/07 09:48:13;;;;;;;12.00;7.37;;;;;;;7.75;100.00;100713.34;5093599;28;20274;-72
2022/01/07 09:50:40;;;;;;;12.20;8.10;;;;;;;8.02;99.60;100709.19;5093416;28;20202;-72
2022/01/07 09:53:09;;;;;;;15.27;8.43;;;;;;;8.41;97.23;100708.00;5093448;28;20194;-72
2022/01/07 09:55:36;;;;;;;14.20;7.80;;;;;;;8.51;100.00;100664.38;5093324;28;20197;-73
2022/01/07 09:58:05;;;;;;;16.50;8.93;;;;;;;8.76;94.59;100706.56;5092951;28;20208;-72
2022/01/07 10:00:34;;;;;;;13.17;7.97;;;;;;;8.67;93.91;100708.84;5092758;28;20257;-71
2022/01/07 10:03:03;;;;;;;12.25;7.68;;;;;;;8.98;93.10;100710.72;5093268;28;20293;-73
2022/01/07 10:05:31;;;;;;;21.47;8.30;;;;;;;8.84;93.33;100709.41;5092862;28;20651;-72
2022/01/07 10:08:16;;;;;;;16.42;9.35;;;;;;;9.78;100.00;100712.22;5093150;28;20199;-78
2022/01/07 10:10:43;;;;;;;10.45;7.07;;;;;;;9.86;100.00;100724.56;5093056;28;20251;-78
2022/01/07 10:13:11;;;;;;;11.23;7.93;;;;;;;10.12;100.00;100714.06;5092968;28;20561;-72
2022/01/07 10:15:39;;;;;;;14.95;7.97;;;;;;;10.09;86.63;100725.22;5092651;28;20240;-72
2022/01/07 10:18:08;;;;;;;7.70;6.68;;;;;;;9.33;86.93;100725.59;5093025;28;20194;-72
2022/01/07 10:20:37;;;;;;;15.53;7.73;;;;;;;9.14;89.25;100728.44;5092298;28;20595;-72
2022/01/07 10:23:06;;;;;;;12.40;7.73;;;;;;;9.32;89.61;100726.44;5092633;28;20692;-74
2022/01/07 10:25:34;;;;;;;10.10;6.95;;;;;;;9.19;88.41;100732.06;5092593;28;20198;-75
2022/01/07 10:28:04;;;;;;;13.73;8.57;;;;;;;9.26;88.87;100715.91;5092817;28;20216;-75
2022/01/07 10:30:37;;;;;;;10.15;7.38;;;;;;;9.20;87.76;100718.31;5091935;28;20194;-72
2022/01/07 10:33:17;;;;;;;13.17;8.43;;;;;;;8.99;89.83;100712.44;5092660;28;20653;-71
2022/01/07 10:35:45;;;;;;;10.27;6.23;;;;;;;8.87;89.63;100696.56;5092291;28;20741;-71
2022/01/07 10:38:16;;;;;;;10.85;8.25;;;;;;;9.03;90.11;100709.13;5093072;28;20193;-71
2022/01/07 10:40:44;;;;;;;17.33;7.45;;;;;;;9.14;89.43;100707.75;5092148;28;20320;-72
2022/01/07 10:43:22;;;;;;;13.13;8.00;;;;;;;9.27;87.25;100712.50;5092423;28;20190;-72
2022/01/07 10:45:53;;;;;;;8.13;7.13;;;;;;;9.44;86.19;100703.50;5092112;28;20643;-72
2022/01/07 10:48:21;;;;;;;13.10;8.05;;;;;;;9.38;86.13;100712.81;5091755;28;20202;-72
2022/01/07 10:50:50;;;;;;;11.50;8.60;;;;;;;9.62;84.01;100697.09;5092319;28;20194;-72
2022/01/07 10:53:28;;;;;;;10.00;7.03;;;;;;;9.22;84.42;100700.22;5092087;28;20206;-71
2022/01/07 10:56:01;;;;;;;11.70;7.13;;;;;;;9.17;85.75;100700.09;5092203;28;20190;-72
2022/01/07 10:58:28;;;;;;;12.60;8.50;;;;;;;9.53;84.91;100694.25;5091828;28;20194;-72
2022/01/07 11:00:56;;;;;;;11.80;7.80;;;;;;;9.73;84.27;100714.72;5090993;28;20226;-72
2022/01/07 11:03:23;;;;;;;21.92;12.27;;;;;;;9.78;82.55;100710.53;5092206;28;20194;-72
2022/01/07 11:05:50;;;;;;;15.32;8.05;;;;;;;9.82;82.43;100707.19;5091598;28;20707;-72
2022/01/07 11:08:18;;;;;;;16.83;8.77;;;;;;;9.86;82.28;100709.03;5091669;28;20202;-75
2022/01/07 11:10:45;;;;;;;13.27;8.90;;;;;;;9.92;82.08;100703.13;5091701;28;20194;-72
2022/01/07 11:13:12;;;;;;;14.27;8.98;;;;;;;9.95;82.31;100698.91;5092135;28;20587;-72
2022/01/07 11:15:39;;;;;;;19.65;8.80;;;;;;;10.03;81.30;100695.66;5091600;28;20577;-73
2022/01/07 11:18:07;;;;;;;18.77;8.63;;;;;;;10.04;81.67;100698.28;5091758;28;20664;-72
2022/01/07 11:20:34;;;;;;;12.20;8.27;;;;;;;9.53;80.41;100666.66;5091774;28;20226;-72
2022/01/07 11:23:01;;;;;;;17.85;9.50;;;;;;;9.55;81.52;100701.25;5091958;28;20201;-75
2022/01/07 11:25:32;;;;;;;19.13;11.50;;;;;;;9.71;82.55;100702.53;5091986;28;20244;-73
2022/01/07 11:28:00;;;;;;;26.60;10.85;;;;;;;9.61;83.45;100685.00;5091617;28;20249;-73